Time;durP1;ratioP1;P1;durP2;ratioP2;P2;SDS_P1;SDS_P2;PMS_P1;PMS_P2;Temp;Humidity;BMP_temperature;BMP_pressure;BME280_temperature;BME280_humidity;BME280_pressure;Samples;Min_cycle;Max_cycle;Signal;HPM_P1;HPM_P2
2023/08/03 00:01:07;;;;;;;12.10;8.17;;;16.30;99.90;;;;;;5089149;28;20973;-68
2023/08/03 00:03:34;;;;;;;9.30;8.90;;;16.40;99.90;;;;;;5098403;28;20458;-69
2023/08/03 00:06:01;;;;;;;7.23;6.57;;;16.40;99.90;;;;;;5102137;28;20483;-68
2023/08/03 00:08:28;;;;;;;6.10;5.80;;;16.40;99.90;;;;;;5088242;28;20460;-68
2023/08/03 00:10:54;;;;;;;6.03;5.70;;;16.40;99.90;;;;;;5085325;28;20457;-68
2023/08/03 00:13:23;;;;;;;7.90;6.03;;;16.40;99.90;;;;;;5102069;28;20453;-67
2023/08/03 00:15:50;;;;;;;5.13;4.93;;;16.40;99.90;;;;;;5105950;28;20484;-69
2023/08/03 00:18:18;;;;;;;5.10;4.90;;;16.40;99.90;;;;;;5097582;28;20462;-68
2023/08/03 00:20:47;;;;;;;17.00;5.67;;;16.50;99.90;;;;;;5096061;28;20485;-68
2023/08/03 00:23:15;;;;;;;7.47;7.17;;;16.50;99.90;;;;;;5107050;28;20472;-67
2023/08/03 00:25:44;;;;;;;6.90;6.70;;;16.40;99.90;;;;;;5089221;28;20458;-67
2023/08/03 00:28:11;;;;;;;6.80;6.60;;;16.30;99.90;;;;;;5090762;28;20461;-69
2023/08/03 00:30:40;;;;;;;7.43;6.97;;;16.20;99.90;;;;;;5106788;28;20556;-68
2023/08/03 00:33:07;;;;;;;6.70;6.50;;;16.20;99.90;;;;;;5095401;28;20515;-68
2023/08/03 00:35:35;;;;;;;6.13;5.93;;;16.20;99.90;;;;;;5088322;28;20556;-67
2023/08/03 00:38:01;;;;;;;7.07;6.77;;;16.20;99.90;;;;;;5092763;28;20454;-68
2023/08/03 00:40:29;;;;;;;7.53;7.27;;;16.30;99.90;;;;;;5095051;28;20504;-69
2023/08/03 00:42:57;;;;;;;8.77;8.43;;;16.20;99.90;;;;;;5097263;28;20729;-68
2023/08/03 00:45:25;;;;;;;9.33;8.67;;;16.20;99.90;;;;;;5092773;28;20795;-69
2023/08/03 00:47:53;;;;;;;7.10;6.70;;;16.10;99.90;;;;;;5102222;28;20612;-69
2023/08/03 00:50:20;;;;;;;6.80;6.50;;;16.00;99.90;;;;;;5097046;28;20742;-69
2023/08/03 00:52:48;;;;;;;6.50;6.13;;;16.10;99.90;;;;;;5094719;28;20457;-69
2023/08/03 00:55:15;;;;;;;6.83;6.53;;;16.00;99.90;;;;;;5095091;28;20582;-69
2023/08/03 00:57:42;;;;;;;7.40;6.60;;;16.00;99.90;;;;;;5099649;28;20914;-70
2023/08/03 01:00:10;;;;;;;6.57;6.27;;;16.00;99.90;;;;;;5093604;28;20498;-68
2023/08/03 01:02:37;;;;;;;6.83;6.43;;;16.00;99.90;;;;;;5085400;28;20461;-70
2023/08/03 01:05:06;;;;;;;5.40;5.20;;;16.00;99.90;;;;;;5087335;28;20454;-70
2023/08/03 01:07:34;;;;;;;5.73;5.43;;;16.00;99.90;;;;;;5087631;28;20936;-70
2023/08/03 01:10:01;;;;;;;5.73;5.53;;;16.00;99.90;;;;;;5087368;28;20474;-69
2023/08/03 01:12:29;;;;;;;8.27;6.37;;;16.00;99.90;;;;;;5085809;28;20552;-69
2023/08/03 01:14:56;;;;;;;5.90;5.70;;;16.00;99.90;;;;;;5095653;28;20514;-68
2023/08/03 01:17:24;;;;;;;6.70;6.20;;;16.00;99.90;;;;;;5107562;28;20449;-68
2023/08/03 01:19:52;;;;;;;7.07;6.60;;;16.00;99.90;;;;;;5089832;28;20482;-68
2023/08/03 01:22:21;;;;;;;7.40;7.00;;;16.10;99.90;;;;;;5095922;28;20453;-69
2023/08/03 01:24:49;;;;;;;6.90;6.40;;;16.00;99.90;;;;;;5094171;28;20460;-68
2023/08/03 01:27:16;;;;;;;7.07;6.57;;;16.00;99.90;;;;;;5094182;28;20504;-68
2023/08/03 01:29:43;;;;;;;6.63;6.43;;;16.10;99.90;;;;;;5089431;28;20935;-68
2023/08/03 01:32:10;;;;;;;7.00;6.80;;;16.00;99.90;;;;;;5103963;28;20461;-69
2023/08/03 01:34:37;;;;;;;7.03;6.83;;;16.10;99.90;;;;;;5097837;28;20944;-68
2023/08/03 01:37:05;;;;;;;7.80;7.40;;;16.10;99.90;;;;;;5105963;28;20855;-68
2023/08/03 01:39:32;;;;;;;9.00;8.30;;;16.10;99.90;;;;;;5095227;28;20480;-68
2023/08/03 01:42:01;;;;;;;8.90;8.60;;;16.10;99.90;;;;;;5109097;28;20966;-67
2023/08/03 01:44:29;;;;;;;8.50;7.90;;;16.10;99.90;;;;;;5092057;27;20849;-68
2023/08/03 01:46:58;;;;;;;8.33;7.93;;;16.00;99.90;;;;;;5105781;28;20449;-70
2023/08/03 01:49:29;;;;;;;8.40;8.10;;;16.00;99.90;;;;;;5098004;28;20857;-67
2023/08/03 01:51:57;;;;;;;7.90;7.70;;;16.00;99.90;;;;;;5099830;28;20978;-68
2023/08/03 01:54:25;;;;;;;8.30;8.00;;;16.00;99.90;;;;;;5101930;28;20811;-70
2023/08/03 01:56:53;;;;;;;8.10;7.80;;;16.00;99.90;;;;;;5093832;28;20560;-69
2023/08/03 01:59:22;;;;;;;9.20;8.50;;;16.00;99.90;;;;;;5101878;28;20797;-69
2023/08/03 02:01:48;;;;;;;8.23;7.93;;;16.00;99.90;;;;;;5098339;28;20880;-69
2023/08/03 02:04:15;;;;;;;8.03;7.53;;;16.00;99.90;;;;;;5100181;28;20466;-69
2023/08/03 02:06:46;;;;;;;8.23;7.93;;;16.10;99.90;;;;;;5094599;28;20478;-68
2023/08/03 02:09:13;;;;;;;6.60;6.40;;;16.10;99.90;;;;;;5105792;28;20465;-70
2023/08/03 02:11:40;;;;;;;8.57;7.90;;;16.00;99.90;;;;;;5099037;28;20465;-68
2023/08/03 02:14:06;;;;;;;8.87;8.10;;;16.10;99.90;;;;;;5096240;28;20461;-69
2023/08/03 02:16:36;;;;;;;7.73;7.43;;;16.10;99.90;;;;;;5098699;28;20500;-69
2023/08/03 02:19:03;;;;;;;16.73;10.37;;;16.10;99.90;;;;;;5103959;28;20461;-69
2023/08/03 02:21:30;;;;;;;6.70;6.50;;;16.10;99.90;;;;;;5091518;28;20493;-69
2023/08/03 02:23:57;;;;;;;6.87;6.47;;;16.10;99.90;;;;;;5106638;28;20465;-68
2023/08/03 02:26:24;;;;;;;7.47;7.17;;;16.10;99.90;;;;;;5096338;28;20510;-68
2023/08/03 02:28:52;;;;;;;6.70;6.40;;;16.10;99.90;;;;;;5102709;28;20465;-69
2023/08/03 02:31:18;;;;;;;6.37;6.13;;;16.10;99.90;;;;;;5107023;28;20468;-68
2023/08/03 02:33:46;;;;;;;5.83;5.63;;;16.10;99.90;;;;;;5096690;28;20460;-69
2023/08/03 02:36:13;;;;;;;5.60;5.40;;;16.10;99.90;;;;;;5091824;28;20466;-68
2023/08/03 02:38:40;;;;;;;5.60;5.40;;;16.20;99.90;;;;;;5096716;28;20472;-69
2023/08/03 02:41:06;;;;;;;5.10;5.00;;;16.20;99.90;;;;;;5097889;28;20549;-69
2023/08/03 02:43:33;;;;;;;4.70;4.60;;;16.20;99.90;;;;;;5098869;28;20466;-68
2023/08/03 02:46:00;;;;;;;6.07;4.73;;;16.20;99.90;;;;;;5095398;28;20502;-68
2023/08/03 02:48:27;;;;;;;4.93;4.60;;;16.20;99.90;;;;;;5105397;28;20510;-69
2023/08/03 02:50:55;;;;;;;4.50;4.40;;;16.20;99.90;;;;;;5096297;28;20466;-68
2023/08/03 02:53:22;;;;;;;4.97;4.67;;;16.30;99.90;;;;;;5099319;28;20829;-68
2023/08/03 02:55:50;;;;;;;4.47;4.37;;;16.30;99.90;;;;;;5095300;28;21006;-69
2023/08/03 02:58:16;;;;;;;5.03;4.83;;;16.30;99.90;;;;;;5102288;28;20902;-68
2023/08/03 03:00:43;;;;;;;4.70;4.60;;;16.30;99.90;;;;;;5101242;28;20476;-69
2023/08/03 03:03:10;;;;;;;5.40;4.90;;;16.40;99.90;;;;;;5102477;28;20967;-69
2023/08/03 03:05:39;;;;;;;4.70;4.43;;;16.40;99.90;;;;;;5094146;28;20485;-69
2023/08/03 03:08:07;;;;;;;4.90;4.70;;;16.40;99.90;;;;;;5089063;28;20461;-70
2023/08/03 03:10:34;;;;;;;6.03;3.80;;;16.40;99.90;;;;;;5092715;28;20470;-70
2023/08/03 03:13:01;;;;;;;4.60;4.50;;;16.50;99.90;;;;;;5092309;28;20446;-69
2023/08/03 03:15:29;;;;;;;4.00;3.90;;;16.50;99.90;;;;;;5091582;28;20483;-70
2023/08/03 03:17:55;;;;;;;5.60;5.17;;;16.50;99.90;;;;;;5092200;28;20882;-69
2023/08/03 03:20:22;;;;;;;4.20;4.10;;;16.50;99.90;;;;;;5098284;28;20486;-70
2023/08/03 03:22:49;;;;;;;4.10;3.80;;;16.50;99.90;;;;;;5092895;28;20917;-70
2023/08/03 03:25:17;;;;;;;3.97;3.87;;;16.50;99.90;;;;;;5102548;28;20821;-68
2023/08/03 03:27:44;;;;;;;4.73;4.43;;;16.60;99.90;;;;;;5098342;28;20464;-69
2023/08/03 03:30:12;;;;;;;4.87;4.60;;;16.60;99.90;;;;;;5095335;28;20472;-70
2023/08/03 03:32:39;;;;;;;4.77;4.57;;;16.50;99.90;;;;;;5101744;28;20465;-69
2023/08/03 03:35:05;;;;;;;4.50;4.40;;;16.60;99.90;;;;;;5103087;28;20821;-67
2023/08/03 03:37:32;;;;;;;4.60;4.40;;;16.60;99.90;;;;;;5084660;28;20473;-68
2023/08/03 03:39:59;;;;;;;5.33;5.00;;;16.60;99.90;;;;;;5098225;28;20457;-69
2023/08/03 03:42:29;;;;;;;4.20;4.10;;;16.60;99.90;;;;;;5099977;28;20650;-69
2023/08/03 03:44:55;;;;;;;4.93;4.73;;;16.60;99.90;;;;;;5094412;28;20450;-69
2023/08/03 03:47:23;;;;;;;5.57;5.27;;;16.60;99.90;;;;;;5099260;28;20457;-69
2023/08/03 03:49:49;;;;;;;4.60;4.50;;;16.70;99.90;;;;;;5090388;28;20469;-69
2023/08/03 03:52:16;;;;;;;5.50;5.20;;;16.70;99.90;;;;;;5088188;28;20458;-69
2023/08/03 03:54:43;;;;;;;4.50;4.40;;;16.70;99.90;;;;;;5095632;28;20514;-69
2023/08/03 03:57:10;;;;;;;5.37;5.17;;;16.70;99.90;;;;;;5094277;28;20465;-69
2023/08/03 03:59:38;;;;;;;25.83;5.13;;;16.70;99.90;;;;;;5088571;28;20643;-69
2023/08/03 04:02:05;;;;;;;5.60;5.20;;;16.70;99.90;;;;;;5105527;28;20511;-70
2023/08/03 04:04:32;;;;;;;5.20;5.10;;;16.70;99.90;;;;;;5100649;28;20472;-69
2023/08/03 04:06:59;;;;;;;5.40;5.30;;;16.70;99.90;;;;;;5098790;28;20563;-69
2023/08/03 04:09:27;;;;;;;5.63;5.47;;;16.70;99.90;;;;;;5092075;28;20472;-67
2023/08/03 04:11:53;;;;;;;5.80;5.60;;;16.70;99.90;;;;;;5089431;28;20458;-69
2023/08/03 04:14:20;;;;;;;6.20;6.00;;;16.70;99.90;;;;;;5092393;28;20442;-69
2023/08/03 04:16:50;;;;;;;5.70;5.53;;;16.70;99.90;;;;;;5101652;28;20484;-68
2023/08/03 04:19:17;;;;;;;6.00;5.80;;;16.70;99.90;;;;;;5092054;28;20513;-68
2023/08/03 04:21:43;;;;;;;5.87;5.67;;;16.70;99.90;;;;;;5091445;28;20484;-69
2023/08/03 04:24:11;;;;;;;6.40;6.10;;;16.70;99.90;;;;;;5095371;28;20903;-68
2023/08/03 04:26:37;;;;;;;5.70;5.50;;;16.70;99.90;;;;;;5104406;28;20558;-68
2023/08/03 04:29:05;;;;;;;6.07;5.87;;;16.70;99.90;;;;;;5094642;28;20454;-67
2023/08/03 04:31:32;;;;;;;6.27;6.07;;;16.70;99.90;;;;;;5108529;28;20547;-69
2023/08/03 04:34:00;;;;;;;6.37;6.17;;;16.70;99.90;;;;;;5088404;28;20470;-67
2023/08/03 04:36:27;;;;;;;5.90;5.70;;;16.70;99.90;;;;;;5105224;28;20464;-68
2023/08/03 04:38:53;;;;;;;6.40;6.20;;;16.80;99.90;;;;;;5094786;28;20899;-69
2023/08/03 04:41:21;;;;;;;6.63;6.33;;;16.80;99.90;;;;;;5104929;28;20489;-69
2023/08/03 04:43:48;;;;;;;10.50;7.60;;;16.90;99.90;;;;;;5098457;28;20661;-68
2023/08/03 04:46:16;;;;;;;6.30;6.10;;;16.90;99.90;;;;;;5089778;28;20466;-68
2023/08/03 04:48:42;;;;;;;6.37;6.17;;;17.00;99.90;;;;;;5101100;28;20852;-69
2023/08/03 04:51:11;;;;;;;6.20;6.00;;;17.10;99.90;;;;;;5098417;28;20464;-69
2023/08/03 04:53:39;;;;;;;7.63;7.33;;;17.10;99.90;;;;;;5101543;28;20469;-68
2023/08/03 04:56:07;;;;;;;6.67;6.47;;;17.10;99.90;;;;;;5092236;28;20574;-70
2023/08/03 04:58:35;;;;;;;6.90;6.70;;;17.10;99.90;;;;;;5094400;28;20450;-68
2023/08/03 05:01:02;;;;;;;7.57;7.27;;;17.20;99.90;;;;;;5094723;28;20489;-68
2023/08/03 05:03:29;;;;;;;7.23;6.77;;;17.30;99.90;;;;;;5093854;28;20964;-68
2023/08/03 05:05:56;;;;;;;7.53;7.23;;;17.30;99.90;;;;;;5094516;28;20478;-69
2023/08/03 05:08:24;;;;;;;7.10;6.90;;;17.30;99.90;;;;;;5094075;28;20466;-68
2023/08/03 05:10:51;;;;;;;7.03;6.83;;;17.30;99.90;;;;;;5102205;28;20471;-70
2023/08/03 05:13:18;;;;;;;7.50;7.30;;;17.30;99.90;;;;;;5104031;28;20453;-69
2023/08/03 05:15:46;;;;;;;7.70;7.50;;;17.30;99.90;;;;;;5102162;28;20888;-70
2023/08/03 05:18:13;;;;;;;7.80;7.50;;;17.30;99.90;;;;;;5097319;28;20460;-69
2023/08/03 05:20:41;;;;;;;6.90;6.70;;;17.30;99.90;;;;;;5104161;28;20479;-69
2023/08/03 05:23:11;;;;;;;8.60;8.30;;;17.20;99.90;;;;;;5098341;28;20936;-67
2023/08/03 05:25:40;;;;;;;10.70;10.30;;;17.10;99.90;;;;;;5090556;28;20461;-69
2023/08/03 05:28:08;;;;;;;11.03;10.37;;;16.80;99.90;;;;;;5094999;28;20457;-68
2023/08/03 05:30:35;;;;;;;11.40;10.90;;;16.70;99.90;;;;;;5104276;28;21162;-67
2023/08/03 05:33:02;;;;;;;10.90;10.30;;;16.50;99.90;;;;;;5094627;28;21049;-67
2023/08/03 05:35:29;;;;;;;10.63;10.23;;;16.40;99.90;;;;;;5100561;28;20485;-68
2023/08/03 05:37:57;;;;;;;9.90;9.50;;;16.30;99.90;;;;;;5099671;28;20459;-70
2023/08/03 05:40:23;;;;;;;9.40;9.00;;;16.20;99.90;;;;;;5096054;28;20480;-69
2023/08/03 05:42:51;;;;;;;8.27;7.97;;;16.20;99.90;;;;;;5092500;27;21014;-71
2023/08/03 05:45:38;;;;;;;7.43;7.10;;;16.10;99.90;;;;;;5096662;28;20461;-69
2023/08/03 05:48:12;;;;;;;6.13;5.93;;;16.00;99.90;;;;;;5103733;28;20898;-68
2023/08/03 05:50:42;;;;;;;6.60;6.40;;;16.00;99.90;;;;;;5093745;28;20504;-69
2023/08/03 05:53:10;;;;;;;6.60;6.30;;;16.00;99.90;;;;;;5091615;28;20548;-71
2023/08/03 05:55:37;;;;;;;6.23;6.03;;;15.90;99.90;;;;;;5092647;28;20469;-69
2023/08/03 05:58:09;;;;;;;6.30;6.10;;;15.90;99.90;;;;;;5094455;28;20464;-69
2023/08/03 06:00:37;;;;;;;6.93;6.40;;;15.90;99.90;;;;;;5094321;28;20465;-70
2023/08/03 06:03:05;;;;;;;6.90;6.57;;;15.90;99.90;;;;;;5098704;28;20589;-69
2023/08/03 06:05:43;;;;;;;5.67;5.47;;;16.00;99.90;;;;;;5100573;28;20548;-68
2023/08/03 06:08:13;;;;;;;5.73;5.53;;;16.00;99.90;;;;;;5091549;28;20503;-69
2023/08/03 06:10:40;;;;;;;5.63;5.43;;;16.00;99.90;;;;;;5091610;28;20584;-68
2023/08/03 06:13:12;;;;;;;16.33;6.63;;;16.00;99.90;;;;;;5099195;28;20458;-71
2023/08/03 06:15:39;;;;;;;12.23;6.07;;;16.00;99.90;;;;;;5095059;28;20517;-72
2023/08/03 06:18:09;;;;;;;5.73;5.53;;;16.00;99.90;;;;;;5098077;28;20454;-70
2023/08/03 06:20:39;;;;;;;5.30;5.10;;;15.90;99.90;;;;;;5095475;28;20491;-71
2023/08/03 06:23:06;;;;;;;5.37;5.17;;;15.90;99.90;;;;;;5097098;28;20819;-68
2023/08/03 06:25:33;;;;;;;5.57;5.40;;;16.00;99.90;;;;;;5093902;28;21041;-68
2023/08/03 06:28:04;;;;;;;5.83;5.53;;;15.90;99.90;;;;;;5094923;28;20457;-69
2023/08/03 06:30:35;;;;;;;6.13;5.93;;;16.00;99.90;;;;;;5095915;27;20931;-70
2023/08/03 06:33:02;;;;;;;5.87;5.67;;;16.00;99.90;;;;;;5085910;27;20843;-70
2023/08/03 06:35:37;;;;;;;5.30;5.20;;;16.10;99.90;;;;;;5094220;28;20479;-69
2023/08/03 06:38:05;;;;;;;7.10;5.50;;;16.10;99.90;;;;;;5099024;28;20488;-69
2023/08/03 06:40:32;;;;;;;7.37;5.67;;;16.10;99.90;;;;;;5084257;27;20454;-70
2023/08/03 06:43:00;;;;;;;5.97;5.77;;;16.10;99.90;;;;;;5085930;28;20488;-71
2023/08/03 06:45:27;;;;;;;5.50;5.30;;;16.10;99.90;;;;;;5096466;28;20449;-69
2023/08/03 06:47:55;;;;;;;5.00;4.90;;;16.20;99.90;;;;;;5094259;28;20492;-70
2023/08/03 06:50:23;;;;;;;6.03;5.63;;;16.20;99.90;;;;;;5093855;27;20470;-71
2023/08/03 06:52:51;;;;;;;5.70;5.50;;;16.30;99.90;;;;;;5090852;28;20461;-70
2023/08/03 06:55:18;;;;;;;5.30;5.10;;;16.20;99.90;;;;;;5090376;28;20458;-68
2023/08/03 06:57:45;;;;;;;5.20;5.00;;;16.20;99.90;;;;;;5095239;28;20917;-69
2023/08/03 07:00:13;;;;;;;5.17;5.00;;;16.20;99.90;;;;;;5094672;28;20458;-69
2023/08/03 07:02:40;;;;;;;5.40;5.20;;;16.30;99.90;;;;;;5099216;28;20484;-69
2023/08/03 07:05:08;;;;;;;6.47;6.07;;;16.20;99.90;;;;;;5093172;28;20539;-68
2023/08/03 07:07:35;;;;;;;5.70;5.43;;;16.20;99.90;;;;;;5086512;28;20513;-67
2023/08/03 07:10:05;;;;;;;6.33;6.13;;;16.20;99.90;;;;;;5089386;28;20944;-68
2023/08/03 07:12:32;;;;;;;7.17;6.73;;;16.20;99.90;;;;;;5097095;28;21028;-68
2023/08/03 07:14:59;;;;;;;6.40;6.20;;;16.20;99.90;;;;;;5091889;28;20450;-69
2023/08/03 07:17:26;;;;;;;6.20;5.90;;;16.20;99.90;;;;;;5094076;28;20457;-68
2023/08/03 07:19:54;;;;;;;5.50;5.40;;;16.20;99.90;;;;;;5094896;28;20612;-68
2023/08/03 07:22:23;;;;;;;5.70;5.50;;;16.20;99.90;;;;;;5090338;28;20522;-71
2023/08/03 07:24:50;;;;;;;5.87;5.67;;;16.20;99.90;;;;;;5094190;28;21206;-71
2023/08/03 07:27:17;;;;;;;6.40;5.90;;;16.10;99.90;;;;;;5096367;28;20462;-69
2023/08/03 07:29:45;;;;;;;6.37;6.07;;;16.10;99.90;;;;;;5099461;28;21079;-72
2023/08/03 07:32:12;;;;;;;5.67;5.47;;;16.10;99.90;;;;;;5088609;28;20507;-69
2023/08/03 07:34:39;;;;;;;5.73;5.33;;;16.10;99.90;;;;;;5084812;28;20951;-71
2023/08/03 07:37:07;;;;;;;5.30;5.10;;;16.10;99.90;;;;;;5096212;28;20462;-71
2023/08/03 07:39:35;;;;;;;5.50;5.40;;;16.10;99.90;;;;;;5089690;28;20532;-70
2023/08/03 07:42:03;;;;;;;5.80;5.60;;;16.10;99.90;;;;;;5094688;28;20505;-69
2023/08/03 07:44:30;;;;;;;5.03;4.83;;;16.20;99.90;;;;;;5085899;28;20462;-71
2023/08/03 07:46:56;;;;;;;6.57;6.17;;;16.20;99.90;;;;;;5089673;28;20458;-68
2023/08/03 07:49:23;;;;;;;4.80;4.60;;;16.40;99.90;;;;;;5086725;28;20462;-69
2023/08/03 07:51:50;;;;;;;4.87;4.50;;;16.60;99.90;;;;;;5093280;28;20762;-71
2023/08/03 07:54:17;;;;;;;4.50;4.27;;;16.80;99.90;;;;;;5101578;28;20955;-68
2023/08/03 07:56:46;;;;;;;4.60;4.50;;;17.10;99.90;;;;;;5090515;28;20929;-70
2023/08/03 07:59:13;;;;;;;3.50;3.40;;;17.20;99.90;;;;;;5096749;28;20461;-69
2023/08/03 08:01:43;;;;;;;4.00;3.90;;;17.40;99.90;;;;;;5094933;28;20485;-70
2023/08/03 08:04:10;;;;;;;4.30;4.20;;;17.40;99.90;;;;;;5085254;28;20497;-71
2023/08/03 08:06:37;;;;;;;5.13;4.73;;;17.40;99.90;;;;;;5090968;28;21161;-70
2023/08/03 08:09:04;;;;;;;4.47;4.37;;;17.50;99.90;;;;;;5091578;28;21229;-69
2023/08/03 08:11:31;;;;;;;4.83;4.73;;;17.80;99.90;;;;;;5092979;28;20462;-68
2023/08/03 08:14:00;;;;;;;5.67;5.47;;;18.00;99.90;;;;;;5087089;28;20465;-70
2023/08/03 08:16:27;;;;;;;5.53;5.30;;;18.00;99.90;;;;;;5096559;28;20509;-69
2023/08/03 08:18:53;;;;;;;5.20;5.10;;;17.90;99.90;;;;;;5092864;28;20890;-69
2023/08/03 08:21:22;;;;;;;5.00;4.90;;;18.00;99.90;;;;;;5089293;28;20461;-68
2023/08/03 08:23:49;;;;;;;6.60;6.40;;;18.10;99.90;;;;;;5085804;28;20891;-69
2023/08/03 08:26:17;;;;;;;6.30;6.10;;;18.00;99.90;;;;;;5093354;28;20938;-68
2023/08/03 08:28:46;;;;;;;8.30;6.23;;;18.20;99.90;;;;;;5085702;28;20473;-69
2023/08/03 08:31:14;;;;;;;6.10;5.90;;;18.20;99.90;;;;;;5093383;28;20453;-69
2023/08/03 08:33:41;;;;;;;6.73;6.53;;;18.20;99.90;;;;;;5095106;28;20478;-68
2023/08/03 08:36:08;;;;;;;7.27;7.07;;;18.30;99.90;;;;;;5097028;28;20450;-67
2023/08/03 08:38:34;;;;;;;7.23;7.00;;;18.30;99.90;;;;;;5091930;28;20468;-68
2023/08/03 08:41:03;;;;;;;6.77;6.57;;;18.20;99.90;;;;;;5090733;28;20457;-69
2023/08/03 08:43:30;;;;;;;6.80;6.50;;;18.20;99.90;;;;;;5097031;28;21000;-69
2023/08/03 08:45:59;;;;;;;7.90;7.60;;;18.30;99.90;;;;;;5103022;28;20456;-69
2023/08/03 08:48:27;;;;;;;8.10;7.30;;;18.30;99.90;;;;;;5096183;28;20497;-68
2023/08/03 08:50:59;;;;;;;8.13;7.63;;;18.20;99.90;;;;;;5093513;28;20540;-69
2023/08/03 08:53:28;;;;;;;6.80;6.60;;;18.20;99.90;;;;;;5098060;28;20460;-69
2023/08/03 08:55:56;;;;;;;7.20;7.00;;;18.40;99.90;;;;;;5093516;28;20452;-67
2023/08/03 08:58:24;;;;;;;8.07;7.77;;;18.50;99.90;;;;;;5092942;28;20461;-68
2023/08/03 09:00:51;;;;;;;8.53;8.23;;;18.70;99.90;;;;;;5089204;28;20501;-69
2023/08/03 09:03:19;;;;;;;8.00;7.70;;;18.80;99.90;;;;;;5096355;28;21103;-70
2023/08/03 09:05:59;;;;;;;8.30;8.00;;;18.90;99.90;;;;;;5087466;28;20935;-68
2023/08/03 09:08:26;;;;;;;8.50;8.10;;;18.80;99.90;;;;;;5092663;28;20905;-69
2023/08/03 09:10:55;;;;;;;8.67;8.37;;;18.80;99.90;;;;;;5094918;28;20469;-69
2023/08/03 09:13:31;;;;;;;7.93;7.50;;;18.60;99.90;;;;;;5095262;28;20904;-69
2023/08/03 09:15:58;;;;;;;6.87;6.67;;;18.50;99.90;;;;;;5105297;28;21032;-67
2023/08/03 09:18:27;;;;;;;6.20;6.00;;;18.20;99.90;;;;;;5093353;28;20461;-67
2023/08/03 09:21:09;;;;;;;5.80;5.60;;;18.10;99.90;;;;;;5098322;28;21124;-67
2023/08/03 09:23:36;;;;;;;6.30;6.00;;;18.00;99.90;;;;;;5096620;28;20498;-67
2023/08/03 09:26:03;;;;;;;5.60;5.03;;;17.90;99.90;;;;;;5089871;28;20492;-68
2023/08/03 09:28:36;;;;;;;5.47;5.27;;;17.90;99.90;;;;;;5097198;28;20969;-68
2023/08/03 09:31:03;;;;;;;6.73;6.33;;;17.80;99.90;;;;;;5095108;28;20466;-68
2023/08/03 09:33:30;;;;;;;6.60;6.30;;;17.80;99.90;;;;;;5092455;28;20471;-67
2023/08/03 09:36:10;;;;;;;11.40;10.63;;;18.10;99.90;;;;;;5093587;28;20468;-69
2023/08/03 09:38:38;;;;;;;10.70;10.03;;;18.70;99.90;;;;;;5093367;28;20458;-69
2023/08/03 09:41:05;;;;;;;9.20;8.90;;;19.30;99.90;;;;;;5092721;28;20457;-69
2023/08/03 09:43:32;;;;;;;10.40;10.00;;;19.80;99.90;;;;;;5091101;28;20941;-69
2023/08/03 09:45:59;;;;;;;11.00;10.60;;;20.30;99.90;;;;;;5094387;28;20458;-70
2023/08/03 09:48:26;;;;;;;13.13;12.53;;;20.50;99.90;;;;;;5097023;28;20803;-69
2023/08/03 09:50:55;;;;;;;13.53;12.50;;;20.60;99.90;;;;;;5092370;28;21121;-69
2023/08/03 09:53:26;;;;;;;12.30;11.80;;;20.50;99.90;;;;;;5104214;28;20471;-69
2023/08/03 09:56:00;;;;;;;12.47;11.97;;;20.60;99.90;;;;;;5089941;28;20474;-68
2023/08/03 09:58:30;;;;;;;13.60;12.43;;;20.80;99.90;;;;;;5095060;28;20459;-68
2023/08/03 10:01:00;;;;;;;12.50;12.00;;;20.80;99.90;;;;;;5099227;28;20445;-69
2023/08/03 10:03:30;;;;;;;13.07;12.03;;;20.90;99.90;;;;;;5098649;28;20570;-68
2023/08/03 10:06:04;;;;;;;13.43;12.73;;;20.90;99.90;;;;;;5088510;28;20563;-68
2023/08/03 10:08:40;;;;;;;12.83;12.23;;;20.80;99.90;;;;;;5094180;28;20481;-69
2023/08/03 10:11:10;;;;;;;13.87;13.17;;;20.80;99.90;;;;;;5090821;28;20470;-68
2023/08/03 10:13:41;;;;;;;13.33;12.73;;;20.80;99.90;;;;;;5095897;28;21040;-68
2023/08/03 10:16:08;;;;;;;13.40;12.50;;;20.90;99.90;;;;;;5090226;28;20474;-68
2023/08/03 10:18:37;;;;;;;13.70;13.00;;;20.90;99.90;;;;;;5097642;28;20449;-68
2023/08/03 10:21:05;;;;;;;12.93;12.43;;;20.90;99.90;;;;;;5096448;28;20828;-69
2023/08/03 10:23:38;;;;;;;13.60;12.90;;;21.20;99.90;;;;;;5101249;28;20521;-69
2023/08/03 10:26:05;;;;;;;14.43;13.53;;;22.20;99.90;;;;;;5096248;28;20480;-69
2023/08/03 10:28:46;;;;;;;13.73;13.13;;;22.40;99.90;;;;;;5091403;28;20795;-69
2023/08/03 10:31:15;;;;;;;14.87;13.70;;;22.60;99.90;;;;;;5086415;28;20548;-69
2023/08/03 10:34:24;;;;;;;14.77;14.10;;;23.10;99.90;;;;;;5091502;28;20466;-68
2023/08/03 10:36:53;;;;;;;14.43;13.57;;;22.90;99.90;;;;;;5089575;28;21244;-69
2023/08/03 10:39:47;;;;;;;14.73;14.00;;;22.70;99.90;;;;;;5091812;27;20489;-70
2023/08/03 10:42:28;;;;;;;14.20;13.60;;;22.40;99.90;;;;;;5093025;28;20466;-70
2023/08/03 10:44:55;;;;;;;14.20;13.60;;;22.20;99.90;;;;;;5098090;28;20476;-69
2023/08/03 10:47:26;;;;;;;13.80;13.20;;;21.90;99.90;;;;;;5093771;28;20458;-70
2023/08/03 10:49:56;;;;;;;14.23;13.13;;;21.80;99.90;;;;;;5085103;28;20838;-68
2023/08/03 10:52:32;;;;;;;13.70;13.10;;;21.60;99.90;;;;;;5097180;28;20494;-70
2023/08/03 10:55:19;;;;;;;13.80;13.20;;;21.60;99.90;;;;;;5099243;28;20449;-71
2023/08/03 10:57:45;;;;;;;13.73;13.13;;;21.50;99.90;;;;;;5097000;28;20460;-68
2023/08/03 11:00:13;;;;;;;14.07;13.47;;;21.50;99.90;;;;;;5093851;28;20866;-70
2023/08/03 11:02:43;;;;;;;13.47;12.90;;;21.70;99.90;;;;;;5094217;28;20492;-71
2023/08/03 11:05:11;;;;;;;13.57;12.97;;;22.50;99.90;;;;;;5092793;28;20971;-69
2023/08/03 11:07:39;;;;;;;14.63;13.83;;;22.20;99.90;;;;;;5092184;28;20454;-69
2023/08/03 11:10:10;;;;;;;14.00;13.30;;;21.90;99.90;;;;;;5087851;28;20462;-69
2023/08/03 11:12:39;;;;;;;14.17;13.47;;;21.10;99.90;;;;;;5094305;28;20461;-69
2023/08/03 11:15:07;;;;;;;12.60;12.10;;;21.10;99.90;;;;;;5090144;28;20820;-68
2023/08/03 11:17:35;;;;;;;14.30;13.50;;;21.50;99.90;;;;;;5095209;28;20832;-69
2023/08/03 11:20:03;;;;;;;13.57;12.87;;;21.40;99.90;;;;;;5092602;28;20458;-69
2023/08/03 11:22:31;;;;;;;13.50;12.60;;;20.60;99.90;;;;;;5093963;28;20472;-69
2023/08/03 11:25:00;;;;;;;12.10;11.60;;;20.20;99.90;;;;;;5100849;28;20480;-69
2023/08/03 11:27:31;;;;;;;12.43;11.93;;;20.00;99.90;;;;;;5087716;28;20469;-67
2023/08/03 11:29:58;;;;;;;19.83;18.13;;;20.10;99.90;;;;;;5099910;28;20813;-65
2023/08/03 11:32:27;;;;;;;15.73;14.83;;;19.30;99.90;;;;;;5097106;28;20464;-69
2023/08/03 11:35:00;;;;;;;12.83;11.60;;;18.50;99.90;;;;;;5096761;28;20461;-68
2023/08/03 11:37:30;;;;;;;8.60;8.30;;;18.00;99.90;;;;;;5090418;28;20457;-68
2023/08/03 11:39:58;;;;;;;6.60;6.40;;;18.00;99.90;;;;;;5086796;28;20556;-68
2023/08/03 11:42:28;;;;;;;5.60;5.40;;;18.10;99.90;;;;;;5090508;28;20945;-69
2023/08/03 11:44:55;;;;;;;5.07;4.87;;;18.50;99.90;;;;;;5096002;28;20453;-69
2023/08/03 11:47:22;;;;;;;4.30;4.20;;;18.60;99.90;;;;;;5094112;28;20465;-67
2023/08/03 11:49:51;;;;;;;4.07;3.87;;;18.50;99.90;;;;;;5090861;28;20468;-68
2023/08/03 11:52:19;;;;;;;7.60;6.17;;;19.00;99.90;;;;;;5090930;28;20452;-68
2023/08/03 11:54:48;;;;;;;6.30;6.03;;;19.60;99.90;;;;;;5086781;28;20805;-68
2023/08/03 12:00:04;;;;;;;8.43;8.10;;;20.40;99.90;;;;;;5087789;28;20452;-69
2023/08/03 12:02:38;;;;;;;10.77;10.37;;;21.10;99.90;;;;;;5096814;28;20935;-69
2023/08/03 12:05:06;;;;;;;12.80;12.20;;;21.30;99.90;;;;;;5086438;28;20536;-68
2023/08/03 12:07:33;;;;;;;14.37;13.77;;;21.70;99.90;;;;;;5089880;28;20546;-69
2023/08/03 12:10:01;;;;;;;14.73;14.03;;;22.20;99.90;;;;;;5088001;28;20454;-69
2023/08/03 12:12:27;;;;;;;15.10;14.40;;;21.90;99.90;;;;;;5088263;28;20752;-69
2023/08/03 12:14:54;;;;;;;15.13;14.43;;;21.50;99.90;;;;;;5089383;28;20477;-68
2023/08/03 12:17:22;;;;;;;14.20;13.50;;;21.10;99.90;;;;;;5093012;28;20453;-69
2023/08/03 12:19:50;;;;;;;13.63;12.93;;;21.00;99.90;;;;;;5087061;28;20450;-68
2023/08/03 12:22:17;;;;;;;13.50;12.90;;;20.80;99.90;;;;;;5095480;28;20476;-67
2023/08/03 12:24:44;;;;;;;14.30;13.40;;;20.80;99.90;;;;;;5099411;28;20957;-68
2023/08/03 12:27:11;;;;;;;12.53;11.93;;;20.70;99.90;;;;;;5094925;28;20497;-69
2023/08/03 12:29:39;;;;;;;11.17;10.73;;;20.00;99.90;;;;;;5096211;28;20460;-68
2023/08/03 12:32:06;;;;;;;11.47;10.33;;;19.40;99.90;;;;;;5086263;28;20986;-67
2023/08/03 12:34:35;;;;;;;9.10;8.70;;;19.10;99.90;;;;;;5089004;28;20947;-67
2023/08/03 12:37:02;;;;;;;8.00;7.53;;;18.80;99.90;;;;;;5086866;28;20961;-67
2023/08/03 12:39:29;;;;;;;7.07;6.77;;;18.70;99.90;;;;;;5089958;28;20754;-68
2023/08/03 12:41:56;;;;;;;7.27;6.97;;;18.90;99.90;;;;;;5098127;28;20977;-67
2023/08/03 12:44:24;;;;;;;5.73;5.53;;;19.10;99.90;;;;;;5091670;28;20899;-70
2023/08/03 12:46:50;;;;;;;11.93;7.97;;;19.60;99.90;;;;;;5093843;28;20894;-69
2023/08/03 12:49:19;;;;;;;9.43;9.10;;;19.70;99.90;;;;;;5085096;28;21016;-68
2023/08/03 12:51:47;;;;;;;10.77;10.07;;;19.80;99.90;;;;;;5099149;28;20972;-69